Leonardo Benítez

Olheiro - Belgrano
26 Set 2027
Domingo
Processo

Personalidade

Adaptabilidade (20) Ambição (15) Controvérsia (13) Lealdade (8) Pressão (18) Profissionalismo (13) Espírito Esportivo (20) Temperamento (1)

Perfil

Estilo de Treinamento Democrático
Licença Nacional A
Determinação 12
Gestão de Pessoas 5
Motivação 10
Disciplina 9
Satisfação no Trabalho
100%
Fadiga
0%
Função Olheiro
Salário 29.8K p/s
Contrato 14.03.2030

Desempenho

Comportamento Bom
Eficácia do Treinamento
44%
Desenvolvimento do Jogador
35%
Prevenção de Lesões
50%
Implementação Tática
55%

Eventos Recentes

Participou de uma reunião de recrutamento agora
Recomendou um alvo de transferência agora
Participou de uma reunião de recrutamento 7d atrás
Recomendou um alvo de transferência 7d atrás
Participou de uma reunião de recrutamento 7d atrás
Participou de uma reunião de recrutamento 7d atrás
Aniversário 7d atrás
Participou de uma reunião de recrutamento 14d atrás

Monitorando agora

64
Jogador Clube Status Habilidade Confiança Observado Última observação Último voto
Julián Gurzi Quilmes Ativo 96 / 111 72% 1 14.06.2027 Aprovar
Alfredo Martinez Universitario Popayan Ativo 82 / 97 40% 1 29.05.2027 -
Etsgar Cruz Notts County Ativo 88 / 88 40% 1 29.05.2027 -
Juan Rodríguez Wanderers Ativo 92 / 104 40% 2 20.05.2027 -
Ihojan Pérez Cerro Largo Ativo 95 / 95 40% 4 19.05.2027 -
Oumar Camara Vitoria Guimaraes Ativo 125 / 133 40% 3 19.05.2027 -
Ander Izarra Portuguesa Ativo 91 / 102 40% 1 15.05.2027 -
Víctor Guzmán Sporting CP Ativo 92 / 94 40% 1 15.05.2027 -
Mateus Mané Liverpool Ativo 134 / 136 40% 2 13.05.2027 -
Bautista Pereira Danubio Ativo 93 / 102 40% 1 13.05.2027 -
Alex Woiski Deportivo Tachira Ativo 90 / 99 40% 1 13.05.2027 -
Luke Baartman Ajax Cape Town Ativo 107 / 114 40% 4 09.05.2027 -
Nathan Mbala FC Metz Ativo 99 / 97 40% 1 05.05.2027 -
Tito La Equidad Ativo 89 / 91 40% 2 04.05.2027 -
Edison Gruezo Queretaro Ativo 99 / 101 40% 2 27.04.2027 -
Luca Bastilla AS Nancy Ativo 94 / 92 40% 2 27.04.2027 -
Alan Torterolo Defensor Sporting Ativo 90 / 95 40% 1 27.04.2027 -
Sayed Abu Farchi Maccabi Tel Aviv Ativo 114 / 134 40% 3 23.04.2027 -
Carlos da Rosa Cerro Ativo 87 / 92 40% 3 22.04.2027 -
Facundo Núñez Liverpool Montevideo Ativo 88 / 94 40% 2 16.04.2027 -
Eduardo Delmás Wisla Krakow Ativo 91 / 96 40% 1 13.04.2027 -
Aidan Dausch Stevenage Ativo 82 / 92 40% 2 10.04.2027 -
Tiziano Dornell Almagro Ativo 122 / 119 40% 2 10.04.2027 -
Máximo Seggio Paysandu Ativo 88 / 86 40% 1 08.04.2027 -
Cristian Peñate Barranquilla Ativo 84 / 93 40% 1 28.03.2027 -
Tiago Taobas Eibar Ativo 87 / 84 40% 1 25.03.2027 -
Amaury Morales Pumas UNAM Ativo 112 / 108 40% 1 11.03.2027 -
Sindre Walle Egeli Ipswich Town Ativo 122 / 141 40% 1 02.03.2027 -
Efraín Álvarez Udinese Ativo 118 / 119 40% 2 28.11.2026 -
Yoshan Valois Lanús Ativo 110 / 120 40% 1 28.11.2026 -
Tomás Chancalay Minnesota United FC Ativo 135 / 118 40% 5 25.11.2026 -
Cristian Barros Cerro Ativo 110 / 102 40% 2 25.11.2026 -
Santiago Pierotti Lecce Ativo 120 / 127 40% 1 25.11.2026 -
Federico Girotti Alianza Lima Ativo 117 / 123 40% 4 21.11.2026 -
David Romero Parma Ativo 132 / 130 40% 1 18.11.2026 -
Agustín Módica Gimnasia y Esgrima Ativo 122 / 118 40% 1 13.11.2026 -
Brayan León Mamelodi Sundowns Ativo 106 / 114 40% 3 12.11.2026 -
Franco Ibarra Rosario Central Ativo 136 / 124 40% 1 12.11.2026 Mais informações
Federico Gattoni Ascoli Ativo 136 / 125 40% 1 12.11.2026 -
Ollie Scarles West Ham United Ativo 140 / 135 40% 1 12.11.2026 -
Luca Langoni New England Revolution Ativo 127 / 123 40% 2 10.11.2026 -
Facundo Mura Inter Miami CF Ativo 135 / 136 40% 2 05.11.2026 -
Enzo Cabrera Danubio Ativo 102 / 115 40% 2 04.11.2026 -
Facundo Garcés Alavés Ativo 140 / 119 40% 2 04.11.2026 -
Martín Ojeda Orlando City Ativo 147 / 129 40% 3 04.11.2026 Observar
Mariano Gómez Ferencvaros Ativo 118 / 111 40% 1 04.11.2026 -
Julián Brea Cobresal Ativo 98 / 102 40% 1 28.10.2026 -
Francisco Bonfiglio Boston River Ativo 114 / 110 40% 2 23.10.2026 -
Agustín Venezia Iquique Ativo 114 / 118 40% 1 23.10.2026 -
Ivo Costantino Danubio Ativo 107 / 111 40% 2 20.10.2026 -
Bautista Tomatis Racing Ativo 110 / 110 40% 2 19.10.2026 -
Esteban da Silva Racing Ativo 111 / 107 40% 1 19.10.2026 -
Kimito Nono FC Tokyo Ativo 127 / 126 40% 1 17.10.2026 -
Gonzalo Luján Inter Miami CF Ativo 117 / 128 40% 1 17.10.2026 -
Leandro Godoy CSKA Sofia Ativo 108 / 124 40% 1 10.10.2026 -
Justo Giani Universidad Catolica Ativo 127 / 115 40% 1 10.10.2026 -
Lucas Acosta Liverpool Montevideo Ativo 114 / 110 40% 2 09.10.2026 -
Florián Monzón Atlas Ativo 131 / 123 40% 1 04.10.2026 -
Francisco Galván Deportivo Municipal Ativo 114 / 106 40% 1 04.10.2026 -
Facundo Batista Penarol Ativo 113 / 122 40% 1 28.09.2026 -
Agustín Alaniz Juventud Ativo 118 / 113 40% 1 22.09.2026 -
Iván Maggi Sportivo Luqueno Ativo 107 / 112 40% 1 22.09.2026 -
Tadeo Allende Inter Miami CF Ativo 116 / 125 40% 1 18.09.2026 -
Agustín Paz Progreso Ativo 109 / 113 40% 1 18.09.2026 -